4 De Coeur — FW6599 — position and weather

sailwx.info

Track history (hours):
 
Tides and Currents Weather Stations Pressure Air Temp Water Temp Dewpoint Dewpoint Depression Visibility Wind Speed Wind Dir Waves Ship Positions

4 De Coeur

Last reported at 2016-Aug-14 18:13 UTC. Time now 2016-Sep-29 22:06 UTC.
Position N 47°33' W 002°54'.
Warning: this ship's position is 46 days out of date.

Length 11 m.

Type: Pleasure craft. MMSI: 227523340.

Date/timePositionNaut miles runAvg speedWind from/ knotsBaromVisibWave heightAir tempDewpointWater temp
2016-Aug-14 18:13N 47°33' W 002°54'1 2.1
2016-Aug-14 17:33N 47°31' W 002°55'5 5.1
2016-Aug-14 16:33N 47°26' W 002°56'4 3.6
2016-Aug-14 15:27N 47°22' W 002°58'0 0.1
2016-Aug-14 11:15N 47°23' W 002°58'0 0.0
2016-Aug-14 10:18N 47°23' W 002°58'0 0.2
2016-Aug-14 09:09N 47°23' W 002°58'0 0.0
2016-Aug-14 08:33N 47°23' W 002°58'0 0.0
2016-Aug-14 07:21N 47°23' W 002°58'0 0.0
2016-Aug-14 06:27N 47°23' W 002°58'0 0.0
2016-Aug-14 04:30N 47°23' W 002°58'0 0.1
2016-Aug-14 03:30N 47°23' W 002°58'3 3.2
2016-Aug-14 02:33N 47°23' W 003°02'5 4.7
2016-Aug-14 01:33N 47°24' W 003°09'4 4.2
2016-Aug-14 00:33N 47°24' W 003°15'2 1.6
2016-Aug-13 23:31N 47°23' W 003°15'0 0.1
2016-Aug-13 18:25N 47°22' W 003°15'0 0.0
2016-Aug-13 17:31N 47°22' W 003°15'0 0.0
2016-Aug-13 14:13N 47°22' W 003°15'0 0.0
2016-Aug-13 13:31N 47°22' W 003°15'1 1.3
2016-Aug-13 12:33N 47°23' W 003°17'5 5.3
2016-Aug-13 11:33N 47°24' W 003°09'5 4.8
2016-Aug-13 10:33N 47°24' W 003°02'3 0.2
2016-Aug-12 20:24N 47°23' W 002°58'1 0.1
2016-Aug-12 12:30N 47°23' W 002°57'4 4.4
2016-Aug-12 11:33N 47°27' W 002°55'3 2.6
2016-Aug-12 10:33N 47°30' W 002°56'3 3.1
2016-Aug-12 09:33N 47°32' W 002°54'0 0.1
2016-Aug-12 08:31N 47°33' W 002°54'  
2016-Aug-07 15:06N 47°33' W 002°54'0 0.0
2016-Aug-07 14:33N 47°33' W 002°54'  
Track history (hours):
 
Tides and Currents Weather Stations Pressure Air Temp Water Temp Dewpoint Dewpoint Depression Visibility Wind Speed Wind Dir Waves Ship Positions

4 De Coeur

Last reported at 2016-Aug-14 18:13 UTC. Time now 2016-Sep-29 22:06 UTC.
Position N 47°33' W 002°54'.
Warning: this ship's position is 46 days out of date.

Length 11 m.

Type: Pleasure craft. MMSI: 227523340.

Date/timePositionNaut miles runAvg speedWind from/ knotsBaromVisibWave heightAir tempDewpointWater temp
2016-Aug-14 18:13N 47°33' W 002°54'1 2.1
2016-Aug-14 17:33N 47°31' W 002°55'5 5.1
2016-Aug-14 16:33N 47°26' W 002°56'4 3.6
2016-Aug-14 15:27N 47°22' W 002°58'0 0.1
2016-Aug-14 11:15N 47°23' W 002°58'0 0.0
2016-Aug-14 10:18N 47°23' W 002°58'0 0.2
2016-Aug-14 09:09N 47°23' W 002°58'0 0.0
2016-Aug-14 08:33N 47°23' W 002°58'0 0.0
2016-Aug-14 07:21N 47°23' W 002°58'0 0.0
2016-Aug-14 06:27N 47°23' W 002°58'0 0.0
2016-Aug-14 04:30N 47°23' W 002°58'0 0.1
2016-Aug-14 03:30N 47°23' W 002°58'3 3.2
2016-Aug-14 02:33N 47°23' W 003°02'5 4.7
2016-Aug-14 01:33N 47°24' W 003°09'4 4.2
2016-Aug-14 00:33N 47°24' W 003°15'2 1.6
2016-Aug-13 23:31N 47°23' W 003°15'0 0.1
2016-Aug-13 18:25N 47°22' W 003°15'0 0.0
2016-Aug-13 17:31N 47°22' W 003°15'0 0.0
2016-Aug-13 14:13N 47°22' W 003°15'0 0.0
2016-Aug-13 13:31N 47°22' W 003°15'1 1.3
2016-Aug-13 12:33N 47°23' W 003°17'5 5.3
2016-Aug-13 11:33N 47°24' W 003°09'5 4.8
2016-Aug-13 10:33N 47°24' W 003°02'3 0.2
2016-Aug-12 20:24N 47°23' W 002°58'1 0.1
2016-Aug-12 12:30N 47°23' W 002°57'4 4.4
2016-Aug-12 11:33N 47°27' W 002°55'3 2.6
2016-Aug-12 10:33N 47°30' W 002°56'3 3.1
2016-Aug-12 09:33N 47°32' W 002°54'0 0.1
2016-Aug-12 08:31N 47°33' W 002°54'  
2016-Aug-07 15:06N 47°33' W 002°54'0 0.0
2016-Aug-07 14:33N 47°33' W 002°54'  

Dump ship's entire track history